createdAt,value
2022-10-28T00:03:06.199Z,100849.45
2022-10-28T00:08:10.232Z,100846.53
2022-10-28T00:13:13.824Z,100836.10
2022-10-28T00:18:17.521Z,100842.13
2022-10-28T00:23:20.865Z,100844.00
2022-10-28T00:28:24.842Z,100849.61
2022-10-28T00:33:28.941Z,100847.13
2022-10-28T00:38:33.775Z,100844.32
2022-10-28T00:43:50.194Z,100837.73
2022-10-28T00:49:06.608Z,100827.14
2022-10-28T00:54:11.751Z,100820.96
2022-10-28T00:59:26.416Z,100812.70
2022-10-28T01:04:30.557Z,100810.48
2022-10-28T01:09:35.204Z,100800.76
2022-10-28T01:15:11.667Z,100797.37
2022-10-28T01:20:25.871Z,100794.01
2022-10-28T01:26:07.764Z,100792.15
2022-10-28T01:31:35.302Z,100790.43
2022-10-28T01:36:55.756Z,100791.31
2022-10-28T01:42:25.257Z,100785.58
2022-10-28T01:47:38.229Z,100795.02
2022-10-28T01:52:44.979Z,100786.30
2022-10-28T01:57:53.282Z,100780.95
2022-10-28T02:02:57.531Z,100778.09
2022-10-28T02:08:25.016Z,100777.13
2022-10-28T02:13:46.984Z,100776.30
2022-10-28T02:19:07.267Z,100771.28
2022-10-28T02:24:40.409Z,100760.95
2022-10-28T02:30:02.083Z,100756.35
2022-10-28T02:35:15.529Z,100755.45
2022-10-28T02:40:25.918Z,100751.88
2022-10-28T02:45:40.390Z,100749.76
2022-10-28T02:50:51.497Z,100749.64
2022-10-28T02:56:01.644Z,100750.48
2022-10-28T03:01:06.406Z,100752.68
2022-10-28T03:06:11.305Z,100748.54
2022-10-28T03:11:16.245Z,100750.58
2022-10-28T03:16:20.021Z,100753.79
2022-10-28T03:21:23.564Z,100740.13
2022-10-28T03:26:26.910Z,100736.70
2022-10-28T03:31:31.007Z,100731.75
2022-10-28T03:36:35.534Z,100736.30
2022-10-28T03:41:40.212Z,100737.98
2022-10-28T03:46:44.606Z,100728.14
2022-10-28T03:51:49.293Z,100717.83
2022-10-28T03:56:53.874Z,100715.93
2022-10-28T04:01:59.421Z,100710.06
2022-10-28T04:07:05.047Z,100705.39
2022-10-28T04:12:12.110Z,100700.20
2022-10-28T04:17:16.014Z,100707.04
2022-10-28T04:22:19.702Z,100704.45
2022-10-28T04:27:23.864Z,100694.91
2022-10-28T04:32:27.531Z,100680.80
2022-10-28T04:37:31.063Z,100680.38
2022-10-28T04:42:35.022Z,100677.41
2022-10-28T04:47:38.509Z,100678.29
2022-10-28T04:52:41.787Z,100672.23
2022-10-28T04:57:45.813Z,100670.92
2022-10-28T05:02:49.306Z,100669.26
2022-10-28T05:07:52.834Z,100676.84
2022-10-28T05:12:56.583Z,100676.86
2022-10-28T05:18:01.003Z,100679.30
2022-10-28T05:23:04.660Z,100678.78
2022-10-28T05:29:16.942Z,100673.09
2022-10-28T05:34:27.683Z,100671.30
2022-10-28T05:39:30.817Z,100667.44
2022-10-28T05:44:34.007Z,100665.59
2022-10-28T05:49:46.812Z,100667.43
2022-10-28T05:54:57.770Z,100663.80
2022-10-28T06:00:01.305Z,100664.09
2022-10-28T06:05:05.848Z,100670.33
2022-10-28T06:10:11.500Z,100671.20
2022-10-28T06:15:15.936Z,100661.04
2022-10-28T06:20:20.472Z,100662.72
2022-10-28T06:25:26.206Z,100663.63
2022-10-28T06:30:29.640Z,100661.58
2022-10-28T06:35:33.113Z,100662.10
2022-10-28T06:40:37.637Z,100667.62
2022-10-28T06:45:41.183Z,100670.04
2022-10-28T06:50:46.367Z,100667.69
2022-10-28T06:55:57.581Z,100667.27
2022-10-28T07:01:06.054Z,100668.53
2022-10-28T07:06:20.267Z,100663.96
2022-10-28T07:11:24.573Z,100663.73
2022-10-28T07:16:28.552Z,100662.41
2022-10-28T07:21:33.007Z,100660.17
2022-10-28T07:27:33.650Z,100659.95
2022-10-28T07:32:55.174Z,100655.52
2022-10-28T07:37:59.244Z,100660.59
2022-10-28T07:43:02.844Z,100663.95
2022-10-28T07:48:07.569Z,100672.66
2022-10-28T07:53:11.033Z,100671.26
2022-10-28T07:58:14.544Z,100675.67
2022-10-28T08:03:18.166Z,100677.66
2022-10-28T08:08:21.434Z,100678.67
2022-10-28T08:13:25.595Z,100677.63
2022-10-28T08:18:28.841Z,100670.55
2022-10-28T08:23:32.244Z,100666.02
2022-10-28T08:28:35.656Z,100656.25
2022-10-28T08:33:42.559Z,100657.20
2022-10-28T08:38:47.343Z,100652.13
2022-10-28T08:44:06.646Z,100656.35
2022-10-28T08:49:14.944Z,100647.23
2022-10-28T08:54:26.127Z,100647.00
2022-10-28T08:59:42.891Z,100640.44
2022-10-28T09:04:48.386Z,100641.26
2022-10-28T09:09:56.901Z,100636.62
2022-10-28T09:15:27.809Z,100641.77
2022-10-28T09:20:44.774Z,100633.77
2022-10-28T09:26:07.488Z,100639.08
2022-10-28T09:31:21.686Z,100635.14
2022-10-28T09:36:37.736Z,100630.17
2022-10-28T09:41:45.370Z,100634.52
2022-10-28T09:47:00.420Z,100631.29
2022-10-28T09:52:15.263Z,100622.91
2022-10-28T09:57:21.496Z,100615.92
2022-10-28T10:02:28.365Z,100617.39
2022-10-28T10:07:38.954Z,100620.96
2022-10-28T10:12:45.534Z,100618.79
2022-10-28T10:17:53.674Z,100617.75
2022-10-28T10:22:58.067Z,100622.02
2022-10-28T10:28:05.057Z,100623.23
2022-10-28T10:33:23.771Z,100612.08
2022-10-28T10:38:30.655Z,100608.44
2022-10-28T10:43:38.415Z,100609.84
2022-10-28T10:48:45.197Z,100607.63
2022-10-28T10:53:51.599Z,100607.61
2022-10-28T10:58:59.281Z,100602.30
2022-10-28T11:04:07.954Z,100603.34
2022-10-28T11:09:19.969Z,100602.71
2022-10-28T11:14:25.445Z,100600.13
2022-10-28T11:19:37.040Z,100600.25
2022-10-28T11:24:47.775Z,100600.38
2022-10-28T11:29:51.354Z,100594.66
2022-10-28T11:35:37.289Z,100587.52
2022-10-28T11:41:11.191Z,100584.67
2022-10-28T11:46:40.391Z,100574.98
2022-10-28T11:52:02.563Z,100575.44
2022-10-28T11:57:17.931Z,100567.06
2022-10-28T12:02:52.412Z,100564.17
2022-10-28T12:08:18.986Z,100553.49
2022-10-28T12:13:41.807Z,100544.42
2022-10-28T12:18:55.152Z,100542.95
2022-10-28T12:23:59.753Z,100544.94
2022-10-28T12:29:09.871Z,100539.98
2022-10-28T12:34:21.379Z,100536.60
2022-10-28T12:39:26.164Z,100535.95
2022-10-28T12:44:34.140Z,100539.09
2022-10-28T12:49:46.464Z,100539.98
2022-10-28T12:54:59.715Z,100533.27
2022-10-28T13:00:25.202Z,100526.03
2022-10-28T13:05:42.636Z,100527.52
2022-10-28T13:10:57.519Z,100528.59
2022-10-28T13:16:24.215Z,100526.30
2022-10-28T13:21:49.329Z,100519.58
2022-10-28T13:26:55.634Z,100515.12
2022-10-28T13:32:01.101Z,100511.44
2022-10-28T13:37:16.572Z,100519.30
2022-10-28T13:42:23.941Z,100518.73
2022-10-28T13:47:36.529Z,100515.56
2022-10-28T13:52:42.633Z,100519.89
2022-10-28T13:57:49.137Z,100516.17
2022-10-28T14:02:56.085Z,100522.46
2022-10-28T14:08:07.471Z,100527.65
2022-10-28T14:13:21.980Z,100532.45
2022-10-28T14:18:44.153Z,100522.02
2022-10-28T14:24:09.637Z,100526.54
2022-10-28T14:29:33.297Z,100518.41
2022-10-28T14:34:43.887Z,100515.52
2022-10-28T14:40:09.340Z,100510.55
2022-10-28T14:45:13.553Z,100504.98
2022-10-28T14:50:22.671Z,100497.98
2022-10-28T14:55:33.968Z,100489.26
2022-10-28T15:00:46.786Z,100475.73
2022-10-28T15:05:51.986Z,100466.06
2022-10-28T15:10:56.840Z,100465.25
2022-10-28T15:16:04.618Z,100469.41
2022-10-28T15:21:11.135Z,100480.23
2022-10-28T15:26:16.855Z,100470.37
2022-10-28T15:31:21.004Z,100475.23
2022-10-28T15:36:27.969Z,100478.41
2022-10-28T15:41:45.941Z,100473.27
2022-10-28T15:46:51.501Z,100471.11
2022-10-28T15:52:17.373Z,100470.95
2022-10-28T15:57:27.629Z,100475.58
2022-10-28T16:02:42.839Z,100464.66
2022-10-28T16:07:47.350Z,100447.89
2022-10-28T16:12:51.761Z,100448.94
2022-10-28T16:17:56.470Z,100449.98
2022-10-28T16:23:02.919Z,100448.45
2022-10-28T16:28:26.140Z,100450.00
2022-10-28T16:33:34.443Z,100447.59
2022-10-28T16:38:39.596Z,100441.82
2022-10-28T16:43:44.345Z,100435.29
2022-10-28T16:48:50.230Z,100428.41
2022-10-28T16:53:54.345Z,100434.00
2022-10-28T16:58:58.129Z,100429.89
2022-10-28T17:04:01.984Z,100440.45
2022-10-28T17:09:05.669Z,100438.54
2022-10-28T17:14:10.194Z,100433.30
2022-10-28T17:19:13.628Z,100443.00
2022-10-28T17:24:17.137Z,100448.03
2022-10-28T17:29:20.494Z,100447.70
2022-10-28T17:34:24.050Z,100441.39
2022-10-28T17:39:27.545Z,100442.36
2022-10-28T17:44:31.144Z,100450.61
2022-10-28T17:49:37.487Z,100450.63
2022-10-28T17:54:40.806Z,100450.17
2022-10-28T17:59:44.799Z,100441.13
2022-10-28T18:04:49.725Z,100434.48
2022-10-28T18:09:55.149Z,100421.86
2022-10-28T18:14:58.950Z,100413.52
2022-10-28T18:20:03.323Z,100404.85
2022-10-28T18:25:09.059Z,100403.44
2022-10-28T18:30:13.989Z,100405.10
2022-10-28T18:35:18.712Z,100405.64
2022-10-28T18:40:30.021Z,100399.61
2022-10-28T18:45:36.160Z,100402.48
2022-10-28T18:50:46.969Z,100404.23
2022-10-28T18:55:54.821Z,100391.59
2022-10-28T19:01:06.243Z,100391.06
2022-10-28T19:06:18.416Z,100395.78
2022-10-28T19:11:26.237Z,100392.27
2022-10-28T19:16:44.502Z,100387.59
2022-10-28T19:21:51.530Z,100391.76
2022-10-28T19:26:56.395Z,100394.05
2022-10-28T19:32:00.705Z,100387.83
2022-10-28T19:37:05.246Z,100380.39
2022-10-28T19:42:09.362Z,100380.27
2022-10-28T19:47:16.704Z,100392.28
2022-10-28T19:52:20.682Z,100396.35
2022-10-28T19:57:25.563Z,100386.11
2022-10-28T20:02:30.586Z,100384.89
2022-10-28T20:07:34.892Z,100383.34
2022-10-28T20:12:38.715Z,100384.99
2022-10-28T20:17:46.935Z,100379.84
2022-10-28T20:22:51.655Z,100389.69
2022-10-28T20:27:55.651Z,100392.27
2022-10-28T20:33:00.338Z,100392.27
2022-10-28T20:38:04.422Z,100378.45
2022-10-28T20:43:07.959Z,100369.10
2022-10-28T20:48:12.607Z,100366.88
2022-10-28T20:53:16.903Z,100364.46
2022-10-28T20:58:22.987Z,100372.56
2022-10-28T21:03:27.312Z,100365.29
2022-10-28T21:08:31.377Z,100367.42
2022-10-28T21:13:35.827Z,100367.66
2022-10-28T21:18:41.041Z,100361.98
2022-10-28T21:23:46.857Z,100355.19
2022-10-28T21:28:52.770Z,100343.29
2022-10-28T21:34:01.838Z,100339.30
2022-10-28T21:39:10.567Z,100334.01
2022-10-28T21:44:14.580Z,100328.29
2022-10-28T21:49:18.705Z,100325.26
2022-10-28T21:54:24.923Z,100325.42
2022-10-28T21:59:32.867Z,100326.76
2022-10-28T22:04:40.690Z,100323.61
2022-10-28T22:09:49.834Z,100322.67
2022-10-28T22:14:56.738Z,100327.10
2022-10-28T22:20:02.497Z,100328.73
2022-10-28T22:25:09.488Z,100325.64
2022-10-28T22:30:16.509Z,100329.36
2022-10-28T22:35:21.850Z,100326.53
2022-10-28T22:40:26.924Z,100321.40
2022-10-28T22:45:32.237Z,100319.98
2022-10-28T22:50:36.693Z,100318.13
2022-10-28T22:55:41.617Z,100318.05
2022-10-28T23:00:47.394Z,100315.64
2022-10-28T23:05:52.500Z,100311.69
2022-10-28T23:10:58.619Z,100311.38
2022-10-28T23:16:11.698Z,100311.73
2022-10-28T23:21:23.125Z,100313.02
2022-10-28T23:26:29.436Z,100306.58
2022-10-28T23:31:35.105Z,100297.65
2022-10-28T23:36:43.092Z,100295.31
2022-10-28T23:41:49.136Z,100294.16
2022-10-28T23:46:56.047Z,100289.50
2022-10-28T23:52:01.208Z,100291.55
2022-10-28T23:57:06.379Z,100296.81
